Time;durP1;ratioP1;P1;durP2;ratioP2;P2;SDS_P1;SDS_P2;PMS_P1;PMS_P2;Temp;Humidity;BMP_temperature;BMP_pressure;BME280_temperature;BME280_humidity;BME280_pressure;Samples;Min_cycle;Max_cycle;Signal;HPM_P1;HPM_P2
2022/02/05 00:02:06;;;;;;;1.30;1.10;;;;;;;8.34;55.18;97641.63;5080223;28;20191;-69
2022/02/05 00:04:33;;;;;;;1.10;1.00;;;;;;;8.26;55.01;97641.44;5038315;28;20943;-71
2022/02/05 00:06:59;;;;;;;1.40;1.30;;;;;;;8.23;54.76;97647.75;5050524;28;20425;-69
2022/02/05 00:12:15;;;;;;;1.43;1.20;;;;;;;8.09;54.53;97658.50;5029679;28;20207;-70
2022/02/05 00:15:00;;;;;;;2.03;1.43;;;;;;;8.13;54.95;97665.09;5048560;28;20463;-70
2022/02/05 00:32:57;;;;;;;2.90;1.30;;;;;;;8.04;54.29;97663.25;5052160;28;20452;-69
2022/02/05 00:44:50;;;;;;;2.40;1.30;;;;;;;7.81;54.15;97718.16;4938031;29;20934;-70
2022/02/05 00:47:16;;;;;;;4.80;1.60;;;;;;;7.84;53.95;97737.00;4952866;29;20448;-70
2022/02/05 00:49:42;;;;;;;2.50;1.30;;;;;;;7.66;52.24;97733.25;4951796;28;20270;-70
2022/02/05 00:52:11;;;;;;;2.90;1.40;;;;;;;7.45;52.77;97747.00;4952620;29;20444;-70
2022/02/05 00:54:38;;;;;;;2.27;1.43;;;;;;;7.54;52.81;97750.69;4952372;28;20222;-70
2022/02/05 00:59:29;;;;;;;3.90;1.63;;;;;;;7.13;52.07;97754.69;4954297;28;20445;-70
2022/02/05 01:01:56;;;;;;;2.43;1.30;;;;;;;7.22;52.23;97757.44;4952601;28;20207;-70
2022/02/05 01:04:21;;;;;;;4.07;1.40;;;;;;;7.09;50.60;97756.72;4951994;28;20199;-71
2022/02/05 01:06:47;;;;;;;2.77;1.20;;;;;;;7.18;51.03;97769.03;4951774;28;20526;-71
2022/02/05 01:09:19;;;;;;;1.73;1.10;;;;;;;7.18;51.34;97766.44;4958962;28;20213;-70
2022/02/05 01:11:44;;;;;;;2.50;1.50;;;;;;;7.28;51.34;97771.78;4952140;28;20332;-70
2022/02/05 01:14:13;;;;;;;1.30;1.10;;;;;;;7.32;50.65;97778.44;4968299;28;20557;-71
2022/02/05 01:16:53;;;;;;;2.70;1.40;;;;;;;7.36;50.85;97777.25;4953917;28;20707;-71
2022/02/05 01:19:43;;;;;;;2.60;1.30;;;;;;;7.31;50.62;97775.94;5039912;28;20426;-70
2022/02/05 01:22:06;;;;;;;4.20;1.27;;;;;;;7.25;49.75;97772.00;5039243;28;20793;-71
2022/02/05 01:24:33;;;;;;;1.83;1.50;;;;;;;7.25;49.94;97776.41;5030662;28;20454;-71
2022/02/05 01:27:15;;;;;;;3.10;1.40;;;;;;;7.31;50.60;97788.97;5032594;28;20715;-71
2022/02/05 01:32:49;;;;;;;2.57;1.30;;;;;;;7.27;50.33;97792.75;4992012;28;20958;-70
2022/02/05 01:35:23;;;;;;;1.70;1.30;;;;;;;7.25;50.34;97803.28;4990027;28;20468;-70
2022/02/05 01:49:13;;;;;;;5.97;1.60;;;;;;;7.11;50.61;97812.16;4988643;28;20455;-71
2022/02/05 01:54:33;;;;;;;3.10;1.17;;;;;;;7.12;50.78;97818.22;4988570;28;20478;-71
2022/02/05 01:57:46;;;;;;;1.90;1.50;;;;;;;7.07;50.91;97816.78;4989218;28;20423;-71
2022/02/05 02:05:06;;;;;;;3.80;1.53;;;;;;;7.05;51.19;97825.69;4988597;28;20423;-71
2022/02/05 02:15:55;;;;;;;1.83;1.53;;;;;;;7.08;51.51;97822.81;5046242;28;20466;-71
2022/02/05 02:26:09;;;;;;;3.20;1.40;;;;;;;7.00;51.81;97825.19;5050941;28;20421;-71
2022/02/05 02:31:16;;;;;;;3.33;1.70;;;;;;;6.90;51.25;97827.63;5031084;28;20439;-71
2022/02/05 02:33:46;;;;;;;3.33;1.53;;;;;;;6.86;51.50;97837.47;5031357;28;20434;-72
2022/02/05 02:36:22;;;;;;;5.30;2.10;;;;;;;6.91;51.57;97834.50;5030627;28;20428;-71
2022/02/05 02:38:51;;;;;;;2.47;1.43;;;;;;;6.88;51.81;97832.97;5042606;28;20459;-69
2022/02/05 02:41:24;;;;;;;3.33;2.10;;;;;;;6.88;51.60;97840.78;5050867;28;20503;-71
2022/02/05 02:43:50;;;;;;;4.30;1.70;;;;;;;6.85;51.37;97848.00;5035299;28;20880;-70
2022/02/05 02:46:15;;;;;;;4.20;1.83;;;;;;;6.81;51.80;97849.16;5066389;28;20474;-71
2022/02/05 02:48:44;;;;;;;3.90;2.00;;;;;;;6.81;51.39;97854.38;5050250;28;20551;-71
2022/02/05 02:58:51;;;;;;;4.83;2.10;;;;;;;6.36;52.12;97857.59;5037145;28;20451;-71
2022/02/05 03:01:19;;;;;;;7.73;1.80;;;;;;;6.51;51.53;97861.72;5030838;28;21015;-71
2022/02/05 03:03:46;;;;;;;4.73;2.03;;;;;;;6.59;52.08;97864.59;5030520;28;20412;-71
2022/02/05 03:06:11;;;;;;;2.13;1.67;;;;;;;6.50;51.74;97859.19;5013345;28;20436;-71
2022/02/05 03:08:37;;;;;;;4.20;1.90;;;;;;;6.58;52.14;97859.50;5039297;28;20422;-70
2022/02/05 03:11:03;;;;;;;5.17;1.87;;;;;;;6.57;51.82;97870.84;5043680;28;20548;-70
2022/02/05 03:13:28;;;;;;;5.53;2.30;;;;;;;6.49;51.66;97868.78;5050408;28;20217;-70
2022/02/05 03:15:54;;;;;;;4.30;1.90;;;;;;;6.52;51.83;97868.59;5050724;28;20216;-70
2022/02/05 03:18:32;;;;;;;5.70;2.20;;;;;;;6.43;51.96;97864.00;5032842;28;20544;-71
2022/02/05 03:20:57;;;;;;;4.40;2.60;;;;;;;6.48;52.16;97871.53;5036538;28;20195;-71
2022/02/05 03:23:23;;;;;;;2.93;2.23;;;;;;;6.49;52.18;97868.78;5050593;28;20821;-71
2022/02/05 03:25:48;;;;;;;6.30;2.53;;;;;;;6.36;51.73;97883.63;5050074;28;20185;-70
2022/02/05 03:28:14;;;;;;;4.27;2.40;;;;;;;6.37;52.11;97874.88;5064510;28;20211;-70
2022/02/05 03:30:39;;;;;;;5.20;2.10;;;;;;;6.48;52.35;97887.16;5065074;28;20786;-70
2022/02/05 03:33:05;;;;;;;3.77;2.53;;;;;;;6.45;51.58;97888.19;5050474;28;20217;-70
2022/02/05 03:35:30;;;;;;;4.80;2.13;;;;;;;6.42;51.79;97888.41;5050579;28;20667;-70
2022/02/05 03:37:56;;;;;;;3.53;2.00;;;;;;;6.41;52.22;97886.75;5050497;28;20600;-70
2022/02/05 03:40:21;;;;;;;4.37;2.50;;;;;;;6.44;51.92;97897.78;5050194;28;20206;-71
2022/02/05 03:42:47;;;;;;;7.27;2.97;;;;;;;6.47;51.82;97901.94;5050161;28;20263;-71
2022/02/05 03:45:14;;;;;;;7.87;2.50;;;;;;;6.50;51.46;97906.06;5050127;28;20187;-71
2022/02/05 03:47:40;;;;;;;4.00;2.17;;;;;;;6.48;51.98;97914.00;5052083;28;20291;-71
2022/02/05 03:50:06;;;;;;;8.73;2.77;;;;;;;6.46;51.58;97923.69;5086337;28;20454;-71
2022/02/05 03:52:31;;;;;;;4.37;2.40;;;;;;;6.39;52.07;97928.50;5103466;28;20185;-71
2022/02/05 03:54:57;;;;;;;3.00;2.53;;;;;;;6.38;52.03;97928.63;5054505;28;20461;-71
2022/02/05 03:57:22;;;;;;;7.73;3.03;;;;;;;6.41;51.97;97938.84;5086542;28;20190;-71
2022/02/05 03:59:49;;;;;;;5.90;2.80;;;;;;;6.42;52.35;97940.50;5049122;28;20552;-71
2022/02/05 04:02:14;;;;;;;5.10;2.70;;;;;;;6.49;51.72;97946.09;5053734;28;20618;-71
2022/02/05 04:04:39;;;;;;;2.67;2.47;;;;;;;6.49;52.06;97946.09;5053905;28;20425;-71
2022/02/05 04:07:05;;;;;;;5.80;2.17;;;;;;;6.50;52.05;97947.75;5085820;28;20191;-71
2022/02/05 04:09:38;;;;;;;5.50;2.47;;;;;;;6.53;52.08;97945.78;5037501;28;20194;-71
2022/02/05 04:17:32;;;;;;;5.53;2.53;;;;;;;6.30;51.98;97950.00;5043099;28;20432;-71
2022/02/05 04:19:58;;;;;;;6.87;2.90;;;;;;;6.41;51.81;97955.28;5071589;28;20491;-72
2022/02/05 04:22:23;;;;;;;4.00;2.40;;;;;;;6.44;52.05;97960.28;5085692;28;20184;-72
2022/02/05 04:24:49;;;;;;;5.27;2.63;;;;;;;6.51;52.50;97963.28;5053598;28;20192;-71
2022/02/05 04:27:14;;;;;;;4.30;2.97;;;;;;;6.54;52.04;97968.28;5053081;28;20292;-72
2022/02/05 04:29:40;;;;;;;2.83;2.20;;;;;;;6.54;52.28;97968.28;5081100;28;20258;-71
2022/02/05 04:32:06;;;;;;;7.20;2.80;;;;;;;6.61;52.12;97972.09;5044963;28;20192;-71
2022/02/05 04:34:31;;;;;;;4.37;2.47;;;;;;;6.63;52.03;97971.97;5053360;28;20266;-71
2022/02/05 04:36:58;;;;;;;3.13;2.53;;;;;;;6.67;51.90;97975.22;5053874;28;20607;-71
2022/02/05 04:39:24;;;;;;;3.77;2.77;;;;;;;6.67;51.78;97980.44;5039683;28;20264;-71
2022/02/05 04:52:29;;;;;;;4.23;2.37;;;;;;;6.81;52.29;97982.06;5047211;28;20446;-71
2022/02/05 05:03:11;;;;;;;5.33;2.57;;;;;;;6.79;52.25;97984.78;5053306;28;20433;-71
2022/02/05 05:13:18;;;;;;;3.87;2.30;;;;;;;6.69;52.58;97995.00;5032700;28;20436;-71
2022/02/05 05:21:10;;;;;;;4.00;1.90;;;;;;;6.72;52.14;97984.38;5031905;28;20449;-71
2022/02/05 05:23:35;;;;;;;4.50;2.73;;;;;;;6.74;52.49;97992.06;5040617;28;20483;-71
2022/02/05 05:26:01;;;;;;;6.50;2.13;;;;;;;6.71;52.51;97998.34;5032393;28;20486;-70
2022/02/05 05:28:26;;;;;;;3.80;2.10;;;;;;;6.66;52.16;97997.00;5031533;28;20188;-71
2022/02/05 05:30:52;;;;;;;3.93;2.37;;;;;;;6.65;52.38;97997.94;5032012;28;20284;-71
2022/02/05 05:33:17;;;;;;;2.43;2.10;;;;;;;6.64;52.87;97997.09;5031695;28;20186;-71
2022/02/05 05:35:43;;;;;;;5.90;2.53;;;;;;;6.68;52.54;97993.34;5031914;28;20283;-72
2022/02/05 05:38:08;;;;;;;4.10;2.43;;;;;;;6.65;52.56;97995.34;5031242;28;20804;-72
2022/02/05 05:40:36;;;;;;;7.87;2.93;;;;;;;6.65;52.89;98003.97;5032636;28;20215;-71
2022/02/05 05:43:05;;;;;;;4.30;2.40;;;;;;;6.70;52.99;98009.69;5038263;28;20209;-72
2022/02/05 05:48:15;;;;;;;4.10;2.73;;;;;;;6.78;52.78;98006.56;5031381;28;20529;-72
2022/02/05 05:53:09;;;;;;;6.37;3.13;;;;;;;6.66;52.35;98004.81;5031541;28;21100;-72
2022/02/05 05:55:35;;;;;;;6.03;2.37;;;;;;;6.72;52.44;98012.19;5031034;28;20495;-72
2022/02/05 05:58:01;;;;;;;3.70;2.90;;;;;;;6.66;52.50;98015.25;5046838;28;20456;-71
2022/02/05 06:00:26;;;;;;;6.57;3.10;;;;;;;6.74;52.84;98018.94;5030621;28;20205;-71
2022/02/05 06:02:52;;;;;;;6.33;2.73;;;;;;;6.81;52.74;98023.75;5031824;28;20189;-71
2022/02/05 06:05:18;;;;;;;7.93;2.80;;;;;;;6.71;52.22;98024.41;5031609;28;20182;-71
2022/02/05 06:07:43;;;;;;;4.60;3.30;;;;;;;6.64;52.22;98022.31;5031217;28;20971;-71
2022/02/05 06:10:09;;;;;;;12.70;6.17;;;;;;;6.50;52.85;98025.88;5029742;28;20227;-71
2022/02/05 06:12:35;;;;;;;6.90;4.57;;;;;;;6.47;52.89;98026.94;5030998;28;20188;-70
2022/02/05 06:15:03;;;;;;;8.80;4.60;;;;;;;6.52;52.90;98029.22;5031012;28;20207;-71
2022/02/05 06:17:29;;;;;;;10.80;4.90;;;;;;;6.58;53.15;98039.22;5030246;28;20185;-71
2022/02/05 06:19:55;;;;;;;11.17;5.53;;;;;;;6.60;53.17;98039.94;5031127;28;20455;-71
2022/02/05 06:22:20;;;;;;;11.40;4.30;;;;;;;6.65;53.06;98050.03;5046610;28;20223;-71
2022/02/05 06:24:46;;;;;;;4.60;2.13;;;;;;;6.68;53.23;98052.44;5046045;28;20798;-71
2022/02/05 06:27:11;;;;;;;4.97;3.43;;;;;;;6.69;53.02;98048.88;5030927;28;20180;-71
2022/02/05 06:29:37;;;;;;;10.87;3.47;;;;;;;6.69;52.94;98049.72;5036708;28;20195;-71
2022/02/05 06:32:03;;;;;;;3.23;2.20;;;;;;;6.76;53.40;98057.94;5031445;28;20189;-71
2022/02/05 06:34:28;;;;;;;8.50;2.43;;;;;;;6.79;53.27;98055.13;5030183;28;20238;-71
2022/02/05 06:36:54;;;;;;;3.80;2.70;;;;;;;6.83;53.31;98059.16;5030883;28;20458;-71
2022/02/05 06:39:20;;;;;;;2.93;2.43;;;;;;;6.83;53.31;98068.78;5031223;28;20239;-71
2022/02/05 06:41:46;;;;;;;8.63;2.70;;;;;;;6.87;53.22;98060.63;5012890;28;20197;-71
2022/02/05 06:44:13;;;;;;;3.20;2.43;;;;;;;6.94;53.28;98062.78;5029092;28;20481;-71
2022/02/05 06:46:39;;;;;;;3.73;3.10;;;;;;;6.94;52.95;98055.81;5028610;28;20524;-71
2022/02/05 06:49:05;;;;;;;8.40;3.33;;;;;;;6.98;53.09;98051.22;5033466;28;20428;-71
2022/02/05 06:51:31;;;;;;;5.17;2.70;;;;;;;6.90;53.00;98060.41;5030302;28;20437;-71
2022/02/05 06:53:56;;;;;;;5.27;2.80;;;;;;;6.89;52.90;98061.34;5030574;28;20229;-71
2022/02/05 06:56:21;;;;;;;5.43;2.70;;;;;;;6.73;53.42;98064.22;5033435;28;20188;-71
2022/02/05 06:58:48;;;;;;;3.50;2.40;;;;;;;6.78;53.58;98060.44;5030384;28;20188;-70
2022/02/05 07:01:13;;;;;;;7.83;2.90;;;;;;;6.82;53.50;98062.72;5030908;28;20304;-70
2022/02/05 07:03:39;;;;;;;9.23;2.97;;;;;;;6.73;53.65;98069.41;5031041;28;20966;-71
2022/02/05 07:06:05;;;;;;;6.73;2.90;;;;;;;6.82;53.63;98073.13;5036069;28;20591;-70
2022/02/05 07:08:31;;;;;;;7.33;3.10;;;;;;;6.87;53.68;98075.41;5039523;28;20205;-71
2022/02/05 07:10:57;;;;;;;7.43;3.07;;;;;;;6.79;53.30;98089.00;5034828;28;20456;-72
2022/02/05 07:13:22;;;;;;;6.90;2.87;;;;;;;6.91;53.54;98087.28;5030046;28;20186;-72
2022/02/05 07:18:57;;;;;;;6.53;3.53;;;;;;;6.91;53.64;98088.16;5027700;28;20196;-71
2022/02/05 07:21:32;;;;;;;7.03;3.20;;;;;;;6.93;53.29;98093.25;5012978;28;20835;-70
2022/02/05 07:29:17;;;;;;;4.90;3.23;;;;;;;7.12;53.17;98098.00;5034213;28;20486;-71
2022/02/05 07:31:52;;;;;;;11.47;2.93;;;;;;;7.16;53.16;98103.81;5034172;28;21156;-71
2022/02/05 07:34:22;;;;;;;7.77;3.80;;;;;;;7.21;53.32;98107.75;5037304;28;20222;-71
2022/02/05 07:36:49;;;;;;;5.70;2.70;;;;;;;7.26;52.45;98104.00;5051348;28;20428;-71
2022/02/05 07:39:14;;;;;;;8.40;3.07;;;;;;;7.18;52.57;98110.56;5041582;28;20469;-71
2022/02/05 07:41:40;;;;;;;4.90;2.90;;;;;;;7.12;52.68;98112.81;5033939;28;20479;-70
2022/02/05 07:44:11;;;;;;;6.07;3.00;;;;;;;7.14;52.81;98109.16;5035884;28;20250;-71
2022/02/05 07:46:37;;;;;;;5.77;2.70;;;;;;;7.26;52.51;98117.03;5033704;28;20440;-70
2022/02/05 07:49:03;;;;;;;5.33;3.40;;;;;;;7.11;52.77;98109.34;5034019;28;20425;-71
2022/02/05 07:51:28;;;;;;;4.93;3.27;;;;;;;6.99;52.98;98118.03;5016323;28;20443;-70
2022/02/05 07:53:54;;;;;;;5.63;3.10;;;;;;;7.23;52.59;98116.31;5034960;28;20235;-70
2022/02/05 07:56:19;;;;;;;5.73;2.87;;;;;;;7.22;52.32;98122.47;5033767;28;20191;-70
2022/02/05 07:58:46;;;;;;;3.80;2.60;;;;;;;7.30;52.25;98127.13;5033904;28;20187;-71
2022/02/05 08:01:12;;;;;;;6.07;2.90;;;;;;;7.41;52.22;98125.53;5032851;28;20243;-70
2022/02/05 08:03:37;;;;;;;8.20;3.30;;;;;;;7.51;52.24;98127.38;5033475;28;20770;-70
2022/02/05 08:06:05;;;;;;;4.60;2.40;;;;;;;7.57;51.78;98126.13;5033764;28;20198;-71
2022/02/05 08:08:33;;;;;;;6.37;3.37;;;;;;;7.92;51.30;98124.50;5034499;28;20432;-70
2022/02/05 08:11:06;;;;;;;3.03;2.40;;;;;;;8.29;50.16;98126.97;5047052;28;20446;-70
2022/02/05 08:13:33;;;;;;;5.63;2.57;;;;;;;8.76;49.71;98126.94;5036014;28;20498;-70
2022/02/05 08:16:11;;;;;;;2.83;2.50;;;;;;;9.10;48.47;98123.47;5054307;28;20472;-70
2022/02/05 08:18:39;;;;;;;3.60;2.30;;;;;;;9.54;46.09;98126.97;5053567;28;20436;-71
2022/02/05 08:21:05;;;;;;;4.63;2.37;;;;;;;10.13;45.28;98124.84;5053245;28;20434;-71
2022/02/05 08:23:33;;;;;;;6.50;2.07;;;;;;;10.59;43.95;98126.25;5053780;28;20446;-70
2022/02/05 08:25:59;;;;;;;5.20;2.90;;;;;;;11.26;43.77;98122.38;5047327;28;20459;-71
2022/02/05 08:28:27;;;;;;;4.57;2.37;;;;;;;11.78;42.06;98122.22;5033734;28;20422;-71
2022/02/05 08:30:52;;;;;;;5.67;2.53;;;;;;;12.35;40.97;98124.94;5016602;28;20604;-71
2022/02/05 08:33:19;;;;;;;4.77;2.00;;;;;;;12.64;39.24;98125.88;5033361;28;20426;-71
2022/02/05 08:35:45;;;;;;;5.13;2.20;;;;;;;12.89;39.10;98122.59;5052885;28;20231;-71
2022/02/05 08:38:10;;;;;;;3.87;2.23;;;;;;;13.08;38.84;98123.47;5068602;28;20429;-71
2022/02/05 08:40:36;;;;;;;5.67;2.30;;;;;;;13.58;38.28;98132.81;5052441;28;20207;-71
2022/02/05 08:43:01;;;;;;;3.93;2.20;;;;;;;13.71;36.87;98132.41;5053497;28;20186;-72
2022/02/05 08:45:27;;;;;;;5.57;2.13;;;;;;;13.90;36.92;98133.28;5052927;28;20551;-71
2022/02/05 08:47:53;;;;;;;5.83;2.03;;;;;;;14.18;36.37;98139.28;5045708;28;20206;-72
2022/02/05 08:50:18;;;;;;;4.63;1.73;;;;;;;14.71;35.60;98134.88;5052965;28;20224;-71
2022/02/05 08:52:44;;;;;;;6.07;2.33;;;;;;;14.33;35.32;98130.81;5053207;28;20425;-71
2022/02/05 08:55:09;;;;;;;4.90;2.37;;;;;;;14.19;36.14;98135.66;5050293;28;20201;-72
2022/02/05 08:57:35;;;;;;;6.63;2.43;;;;;;;14.49;35.92;98130.91;5052130;28;20199;-71
2022/02/05 09:00:12;;;;;;;5.13;1.97;;;;;;;14.59;35.26;98133.44;5085063;28;20206;-71
2022/02/05 09:02:48;;;;;;;8.20;2.30;;;;;;;15.19;34.66;98132.66;5053093;28;20717;-72
2022/02/05 09:05:26;;;;;;;4.00;1.63;;;;;;;15.60;34.12;98131.94;5053149;28;20426;-71
2022/02/05 09:07:52;;;;;;;4.43;1.50;;;;;;;15.91;33.38;98135.81;5049788;28;20429;-72
2022/02/05 09:10:39;;;;;;;3.37;1.47;;;;;;;16.20;32.45;98139.81;5048036;28;20454;-71
2022/02/05 09:15:32;;;;;;;2.37;1.80;;;;;;;16.59;32.20;98137.28;5041030;28;20490;-71
2022/02/05 09:17:58;;;;;;;4.23;1.67;;;;;;;16.83;31.59;98146.16;5033376;28;20415;-72
2022/02/05 09:20:25;;;;;;;4.00;1.70;;;;;;;16.94;31.65;98136.22;5049170;28;20218;-71
2022/02/05 09:22:50;;;;;;;7.93;2.37;;;;;;;16.80;30.81;98141.22;5035187;28;20641;-72
2022/02/05 09:25:16;;;;;;;6.53;2.03;;;;;;;17.13;30.68;98135.84;5040616;28;20513;-73
2022/02/05 09:27:45;;;;;;;4.07;1.83;;;;;;;15.75;31.67;98139.22;5036510;28;20195;-72
2022/02/05 09:30:15;;;;;;;8.17;1.77;;;;;;;15.89;32.05;98140.44;5052758;28;20283;-72
2022/02/05 09:32:40;;;;;;;4.33;1.90;;;;;;;16.24;31.97;98141.94;5032743;28;20423;-74
2022/02/05 09:35:07;;;;;;;4.73;1.70;;;;;;;16.72;30.98;98142.06;5052508;28;20462;-72
2022/02/05 09:37:33;;;;;;;4.93;1.70;;;;;;;17.27;30.93;98131.63;5033056;28;20194;-71
2022/02/05 09:39:59;;;;;;;7.70;1.60;;;;;;;17.65;30.32;98134.41;5052033;28;20441;-72
2022/02/05 09:42:24;;;;;;;5.33;1.73;;;;;;;17.93;29.65;98135.75;5067515;28;20476;-72
2022/02/05 09:44:51;;;;;;;4.73;1.70;;;;;;;17.13;29.84;98130.53;5051523;28;20168;-71
2022/02/05 09:47:20;;;;;;;4.43;1.60;;;;;;;18.14;29.16;98137.78;5051763;28;20270;-71
2022/02/05 09:49:46;;;;;;;5.80;2.27;;;;;;;18.46;28.74;98133.19;5051276;28;20942;-72
2022/02/05 09:52:23;;;;;;;6.90;1.57;;;;;;;18.45;28.40;98131.53;5052173;28;20425;-72
2022/02/05 09:54:48;;;;;;;3.33;1.47;;;;;;;18.48;28.27;98144.44;5036969;28;20208;-72
2022/02/05 09:57:14;;;;;;;3.73;1.20;;;;;;;18.60;28.19;98141.34;5032030;28;20441;-70
2022/02/05 09:59:46;;;;;;;5.33;1.63;;;;;;;19.01;28.20;98135.63;5031499;28;20192;-72
2022/02/05 10:02:21;;;;;;;3.67;1.50;;;;;;;19.31;27.39;98139.09;5047620;28;20192;-71
2022/02/05 10:04:54;;;;;;;2.60;1.43;;;;;;;18.54;26.88;98145.56;5051726;28;20508;-71
2022/02/05 10:07:19;;;;;;;6.80;1.60;;;;;;;18.91;27.16;98140.34;5051617;28;20536;-71
2022/02/05 10:09:55;;;;;;;4.20;1.63;;;;;;;18.57;27.76;98148.66;5032207;28;20438;-71
2022/02/05 10:12:21;;;;;;;6.67;1.53;;;;;;;18.88;27.37;98149.50;5030720;28;20206;-72
2022/02/05 10:14:51;;;;;;;2.57;1.77;;;;;;;18.62;27.94;98156.09;5031913;28;20462;-71
2022/02/05 10:17:17;;;;;;;5.53;1.67;;;;;;;18.40;28.25;98152.47;5030783;28;20186;-72
2022/02/05 10:19:53;;;;;;;2.67;1.17;;;;;;;18.72;27.89;98145.22;5031510;28;20426;-71
2022/02/05 10:22:20;;;;;;;5.63;1.80;;;;;;;19.00;27.14;98152.59;5031860;28;20218;-71
2022/02/05 10:24:56;;;;;;;7.37;2.67;;;;;;;19.34;27.10;98138.69;5031148;28;20419;-71
2022/02/05 10:27:32;;;;;;;6.00;1.70;;;;;;;19.14;26.86;98149.09;5028897;28;20516;-71
2022/02/05 10:30:10;;;;;;;6.93;1.70;;;;;;;19.57;26.54;98148.38;5046315;28;20493;-72
2022/02/05 10:32:41;;;;;;;3.20;1.60;;;;;;;19.30;25.58;98144.56;5031482;28;20437;-71
2022/02/05 10:35:22;;;;;;;3.93;1.37;;;;;;;19.63;25.40;98160.91;5031619;28;20545;-71
2022/02/05 10:37:58;;;;;;;2.63;1.20;;;;;;;19.49;25.82;98151.97;5031338;28;20834;-71
2022/02/05 10:43:09;;;;;;;4.20;2.00;;;;;;;19.63;26.03;98142.31;5037271;28;20903;-73
2022/02/05 10:45:40;;;;;;;5.07;1.20;;;;;;;19.99;26.10;98155.78;5051043;28;20788;-72
2022/02/05 10:48:05;;;;;;;2.80;1.33;;;;;;;19.91;25.17;98154.91;5050706;28;20482;-72
2022/02/05 10:50:34;;;;;;;4.30;1.17;;;;;;;19.89;25.54;98150.81;5050770;28;21005;-73
2022/02/05 10:53:07;;;;;;;4.40;1.50;;;;;;;19.62;24.91;98156.59;5033685;28;20649;-72
2022/02/05 11:07:04;;;;;;;3.33;1.23;;;;;;;20.39;24.00;98170.31;4964075;28;20425;-72
2022/02/05 11:09:30;;;;;;;2.90;1.10;;;;;;;20.41;23.62;98170.91;4969679;28;20461;-72
2022/02/05 11:19:58;;;;;;;2.43;1.00;;;;;;;19.54;24.50;98166.53;4967576;28;20457;-72
2022/02/05 11:22:25;;;;;;;7.37;1.30;;;;;;;19.53;24.03;98162.25;4968301;28;20923;-71
2022/02/05 11:24:51;;;;;;;114.63;5.90;;;;;;;19.96;24.87;98162.31;4968112;28;20528;-72
2022/02/05 11:27:17;;;;;;;5.80;1.47;;;;;;;20.03;24.71;98168.53;4954933;28;20453;-72
2022/02/05 11:29:43;;;;;;;9.30;1.80;;;;;;;20.25;24.27;98160.53;4968722;28;20472;-72
2022/02/05 11:32:16;;;;;;;2.50;1.27;;;;;;;20.53;24.55;98167.75;4969942;28;20465;-72
2022/02/05 11:34:49;;;;;;;3.90;1.37;;;;;;;20.53;24.99;98165.09;5006657;28;20258;-71
2022/02/05 11:37:15;;;;;;;5.30;1.40;;;;;;;20.70;24.02;98160.28;5030861;28;20426;-71
2022/02/05 11:39:45;;;;;;;5.10;1.37;;;;;;;20.75;24.10;98159.72;5022994;28;20979;-72
2022/02/05 11:42:27;;;;;;;4.83;1.50;;;;;;;20.77;24.46;98157.69;5050221;28;20450;-70
2022/02/05 11:44:55;;;;;;;2.57;1.20;;;;;;;20.95;23.73;98151.88;5049468;28;20429;-70
2022/02/05 11:47:20;;;;;;;3.83;1.43;;;;;;;20.39;23.89;98151.66;5048384;28;21076;-70
2022/02/05 11:49:51;;;;;;;5.63;1.87;;;;;;;19.60;24.18;98147.19;5050085;28;20448;-70
2022/02/05 11:52:35;;;;;;;6.40;1.83;;;;;;;20.30;24.70;98142.16;5042784;28;20179;-70
2022/02/05 11:55:05;;;;;;;2.00;1.20;;;;;;;20.59;24.06;98136.84;5038878;28;20497;-71
2022/02/05 11:57:43;;;;;;;5.17;1.20;;;;;;;20.86;23.66;98129.88;5045694;28;20922;-71
2022/02/05 12:00:19;;;;;;;7.53;1.30;;;;;;;20.96;23.83;98132.19;5029852;28;20435;-71
2022/02/05 12:02:55;;;;;;;2.70;0.90;;;;;;;20.85;22.64;98134.41;5024574;28;20509;-71
2022/02/05 12:05:28;;;;;;;5.20;1.00;;;;;;;20.88;23.00;98141.16;5024815;28;20964;-70
2022/02/05 12:08:06;;;;;;;5.70;0.97;;;;;;;20.63;22.76;98120.28;5036509;28;21176;-71
2022/02/05 12:10:46;;;;;;;4.93;1.03;;;;;;;20.60;23.14;98131.31;5052943;28;20511;-73
2022/02/05 12:13:26;;;;;;;2.40;0.87;;;;;;;20.82;23.29;98134.78;5034675;28;20434;-74
2022/02/05 12:15:55;;;;;;;3.87;1.20;;;;;;;20.91;23.82;98132.78;5034660;28;20454;-73
2022/02/05 12:18:24;;;;;;;4.40;1.27;;;;;;;20.75;23.34;98138.41;5034449;28;20414;-74
2022/02/05 12:20:54;;;;;;;8.53;0.90;;;;;;;20.29;23.24;98134.38;5053863;28;20437;-74
2022/02/05 12:23:42;;;;;;;7.10;1.37;;;;;;;20.32;23.84;98134.00;5069708;28;20429;-73
2022/02/05 12:26:07;;;;;;;4.82;1.58;;;;;;;20.24;23.76;98126.97;5044839;28;20426;-74
2022/02/05 12:28:36;;;;;;;2.83;1.10;;;;;;;20.47;23.50;98136.56;5035612;28;20188;-76
2022/02/05 12:31:25;;;;;;;5.43;1.50;;;;;;;20.47;23.82;98125.91;5030238;28;20436;-74
2022/02/05 12:33:59;;;;;;;4.80;1.10;;;;;;;20.44;23.17;98119.13;5038207;28;20186;-74
2022/02/05 12:36:36;;;;;;;3.50;1.20;;;;;;;20.42;24.08;98114.00;5035001;28;20946;-73
2022/02/05 12:39:04;;;;;;;9.57;1.53;;;;;;;20.37;23.23;98110.25;5062841;28;20423;-73
2022/02/05 12:41:30;;;;;;;2.70;1.20;;;;;;;20.37;24.46;98111.09;5015739;28;20974;-73
2022/02/05 12:44:01;;;;;;;4.43;1.27;;;;;;;20.23;23.75;98107.50;5033745;28;20445;-73
2022/02/05 12:46:40;;;;;;;2.60;1.17;;;;;;;20.06;24.06;98100.81;5048674;28;20434;-74
2022/02/05 12:49:14;;;;;;;4.00;1.17;;;;;;;19.57;25.27;98103.19;5068249;28;20799;-73
2022/02/05 12:51:41;;;;;;;3.90;1.20;;;;;;;19.41;23.78;98101.56;5045058;28;20454;-73
2022/02/05 12:54:13;;;;;;;2.13;1.10;;;;;;;19.52;24.28;98105.56;5045170;28;20426;-73
2022/02/05 12:56:40;;;;;;;2.85;1.30;;;;;;;19.62;24.19;98099.97;5082786;28;20910;-73
2022/02/05 12:59:11;;;;;;;3.40;1.40;;;;;;;19.65;24.51;98096.94;5050533;28;20242;-73
2022/02/05 13:01:39;;;;;;;5.30;1.50;;;;;;;19.64;24.35;98096.09;5067967;28;20452;-73
2022/02/05 13:04:15;;;;;;;3.17;1.20;;;;;;;19.36;24.17;98087.19;5050980;28;20777;-72
2022/02/05 13:06:41;;;;;;;1.60;1.40;;;;;;;19.45;23.93;98096.72;5050879;28;20426;-73
2022/02/05 13:09:20;;;;;;;2.13;1.13;;;;;;;19.52;24.10;98105.56;5052067;28;20430;-72
2022/02/05 13:11:46;;;;;;;3.50;1.60;;;;;;;19.37;23.56;98105.63;5042968;28;20264;-73
2022/02/05 13:14:11;;;;;;;2.20;1.20;;;;;;;19.00;23.71;98096.81;5019749;28;20428;-73
2022/02/05 13:16:39;;;;;;;1.93;1.13;;;;;;;19.02;24.16;98089.47;5032489;28;20819;-73
2022/02/05 13:19:24;;;;;;;3.13;1.00;;;;;;;18.62;23.75;98092.38;5032771;28;20190;-72
2022/02/05 13:35:55;;;;;;;3.73;1.30;;;;;;;18.67;24.71;98067.91;5065377;28;20601;-73
2022/02/05 13:38:20;;;;;;;1.87;0.87;;;;;;;18.59;24.55;98087.41;5052554;28;20501;-72
2022/02/05 13:40:50;;;;;;;1.70;1.03;;;;;;;18.26;24.99;98069.19;5032141;28;20869;-73
2022/02/05 13:43:19;;;;;;;4.03;1.20;;;;;;;18.03;25.11;98074.53;5033102;28;20176;-73
2022/02/05 13:45:45;;;;;;;4.70;1.20;;;;;;;18.05;25.24;98080.47;5047828;28;20856;-73
2022/02/05 13:48:23;;;;;;;4.10;1.53;;;;;;;17.77;25.33;98081.81;5032493;28;20415;-73
2022/02/05 13:50:48;;;;;;;3.00;1.00;;;;;;;17.80;25.87;98072.69;5032410;28;20202;-73
2022/02/05 13:53:14;;;;;;;4.10;1.33;;;;;;;17.69;25.79;98075.75;5032261;28;20499;-73
2022/02/05 13:55:42;;;;;;;2.17;1.00;;;;;;;17.35;26.06;98083.09;5042120;28;20214;-73
2022/02/05 13:58:12;;;;;;;2.33;1.03;;;;;;;17.08;26.39;98087.03;5047929;28;20425;-73
2022/02/05 14:00:42;;;;;;;3.30;1.00;;;;;;;16.89;26.77;98079.31;5043917;28;20446;-74
2022/02/05 14:03:08;;;;;;;4.47;1.30;;;;;;;16.93;26.87;98082.44;5054101;28;20425;-73
2022/02/05 14:05:36;;;;;;;2.47;1.00;;;;;;;16.91;26.72;98083.59;5053091;28;20425;-73
2022/02/05 14:08:03;;;;;;;3.93;1.00;;;;;;;16.40;27.28;98090.03;5053168;28;20467;-73
2022/02/05 14:10:29;;;;;;;2.27;1.00;;;;;;;16.18;27.70;98089.72;5078187;28;20548;-74
2022/02/05 14:12:56;;;;;;;2.63;0.83;;;;;;;16.18;27.82;98096.81;5037960;28;20884;-73
2022/02/05 14:15:25;;;;;;;2.27;0.90;;;;;;;15.93;28.18;98100.31;5044512;28;20214;-73
2022/02/05 14:18:13;;;;;;;6.70;1.43;;;;;;;15.63;28.44;98096.44;5048784;28;20790;-73
2022/02/05 14:20:55;;;;;;;3.87;1.70;;;;;;;15.45;28.34;98086.84;5030964;28;20454;-73
2022/02/05 14:23:23;;;;;;;3.80;1.80;;;;;;;15.33;28.33;98096.06;5032248;28;20484;-72
2022/02/05 14:26:11;;;;;;;2.20;1.50;;;;;;;15.07;29.04;98091.69;5036525;28;20422;-73
2022/02/05 14:28:52;;;;;;;5.17;1.73;;;;;;;14.56;29.61;98108.22;5031386;28;20941;-72
2022/02/05 14:41:48;;;;;;;2.17;1.00;;;;;;;14.27;29.79;98098.78;5034820;28;20437;-72
2022/02/05 14:44:13;;;;;;;2.43;1.10;;;;;;;14.34;30.02;98106.09;5066838;28;20528;-72